Time;durP1;ratioP1;P1;durP2;ratioP2;P2;SDS_P1;SDS_P2;PMS_P1;PMS_P2;Temp;Humidity;BMP_temperature;BMP_pressure;BME280_temperature;BME280_humidity;BME280_pressure;Samples;Min_cycle;Max_cycle;Signal;HPM_P1;HPM_P2
2023/06/23 00:01:36;;;;;;;8.98;3.58;;;16.90;68.40;;;;;;4993510;28;20403;-75
2023/06/23 00:04:01;;;;;;;7.75;3.67;;;16.90;68.30;;;;;;4994033;28;20416;-75
2023/06/23 00:06:28;;;;;;;6.40;3.28;;;16.80;69.60;;;;;;4991865;28;20019;-75
2023/06/23 00:08:54;;;;;;;7.30;3.33;;;16.80;70.50;;;;;;4992425;28;20117;-75
2023/06/23 00:11:20;;;;;;;6.25;3.28;;;16.80;71.10;;;;;;4989704;28;20301;-76
2023/06/23 00:13:45;;;;;;;5.82;3.20;;;16.80;71.80;;;;;;4992177;28;20061;-76
2023/06/23 00:16:11;;;;;;;5.25;2.97;;;16.90;74.80;;;;;;4996596;28;20327;-76
2023/06/23 00:18:39;;;;;;;5.05;3.08;;;16.80;76.60;;;;;;4998257;28;20035;-76
2023/06/23 00:21:09;;;;;;;5.90;2.85;;;16.90;78.10;;;;;;4996713;28;20054;-76
2023/06/23 00:23:35;;;;;;;4.65;2.28;;;16.80;78.10;;;;;;4996883;28;20053;-76
2023/06/23 00:26:01;;;;;;;6.00;3.03;;;16.80;80.30;;;;;;4996539;28;20379;-78
2023/06/23 00:28:27;;;;;;;5.45;2.78;;;16.90;79.40;;;;;;4996823;28;20034;-80
2023/06/23 00:30:54;;;;;;;7.38;3.50;;;16.90;77.40;;;;;;4995828;28;20041;-78
2023/06/23 00:33:20;;;;;;;6.28;3.22;;;16.80;75.00;;;;;;4995491;28;20032;-76
2023/06/23 00:35:46;;;;;;;10.02;3.45;;;16.70;72.70;;;;;;4997087;28;20030;-79
2023/06/23 00:38:13;;;;;;;7.97;3.72;;;16.70;70.20;;;;;;4995486;28;20817;-77
2023/06/23 00:40:39;;;;;;;6.13;3.13;;;16.60;69.10;;;;;;4997032;28;20411;-75
2023/06/23 00:43:04;;;;;;;3.83;2.17;;;16.50;67.60;;;;;;5019806;28;20107;-74
2023/06/23 00:45:30;;;;;;;3.88;2.08;;;16.50;66.20;;;;;;5017736;28;20331;-74
2023/06/23 00:47:56;;;;;;;6.53;2.80;;;16.50;66.10;;;;;;5017180;28;20048;-74
2023/06/23 00:50:24;;;;;;;3.65;1.95;;;16.50;66.00;;;;;;5017546;28;20033;-74
2023/06/23 00:52:54;;;;;;;3.28;1.67;;;16.50;65.70;;;;;;5016009;28;20042;-74
2023/06/23 00:55:25;;;;;;;4.13;2.25;;;16.50;65.90;;;;;;5018279;28;20025;-74
2023/06/23 00:57:52;;;;;;;4.43;2.03;;;16.50;68.20;;;;;;5018259;28;20072;-74
2023/06/23 01:00:19;;;;;;;4.72;1.90;;;16.50;68.90;;;;;;5017298;28;20030;-74
2023/06/23 01:02:48;;;;;;;5.05;2.13;;;16.50;68.00;;;;;;5017713;28;20346;-74
2023/06/23 01:05:18;;;;;;;5.28;2.10;;;16.40;67.80;;;;;;5018238;28;20025;-74
2023/06/23 01:07:57;;;;;;;4.72;2.47;;;16.40;68.30;;;;;;5014533;28;20026;-74
2023/06/23 01:10:49;;;;;;;3.63;1.90;;;16.40;69.10;;;;;;5017862;28;20082;-73
2023/06/23 01:13:29;;;;;;;3.95;2.15;;;16.50;69.40;;;;;;5017070;28;20035;-74
2023/06/23 01:16:06;;;;;;;4.15;2.10;;;16.40;69.90;;;;;;5016956;28;20476;-74
2023/06/23 01:18:38;;;;;;;3.60;2.20;;;16.40;68.80;;;;;;5000041;28;20117;-74
2023/06/23 01:21:07;;;;;;;6.75;1.92;;;16.30;67.60;;;;;;5015365;28;20041;-74
2023/06/23 01:24:04;;;;;;;3.70;2.10;;;16.30;66.90;;;;;;4998136;28;20026;-73
2023/06/23 01:27:06;;;;;;;3.60;2.20;;;16.30;66.30;;;;;;5013993;28;20022;-74
2023/06/23 01:29:35;;;;;;;4.65;2.47;;;16.30;65.60;;;;;;5012920;28;20030;-74
2023/06/23 01:32:04;;;;;;;4.20;2.63;;;16.30;64.90;;;;;;4997669;28;20033;-73
2023/06/23 01:34:44;;;;;;;4.38;2.80;;;16.20;64.60;;;;;;4998932;28;20026;-73
2023/06/23 01:37:19;;;;;;;5.35;3.05;;;16.20;63.90;;;;;;5012886;28;20101;-74
2023/06/23 01:39:53;;;;;;;4.85;3.08;;;16.20;63.20;;;;;;5013802;28;20411;-73
2023/06/23 01:42:22;;;;;;;6.78;3.50;;;16.20;62.60;;;;;;5015167;28;20041;-73
2023/06/23 01:44:54;;;;;;;7.35;4.10;;;16.20;61.80;;;;;;5014885;28;20042;-73
2023/06/23 01:47:27;;;;;;;8.05;4.35;;;16.20;62.00;;;;;;5014118;28;20026;-74
2023/06/23 01:49:58;;;;;;;7.03;4.80;;;16.20;61.40;;;;;;5013368;28;20334;-74
2023/06/23 01:52:25;;;;;;;10.25;6.00;;;16.10;61.90;;;;;;5012660;28;20088;-74
2023/06/23 01:54:53;;;;;;;7.10;5.22;;;16.00;61.60;;;;;;5007485;28;20128;-73
2023/06/23 01:57:21;;;;;;;10.30;6.50;;;16.00;61.50;;;;;;4997335;28;20025;-74
2023/06/23 01:59:48;;;;;;;10.88;7.18;;;16.00;61.00;;;;;;5013231;28;20084;-74
2023/06/23 02:02:16;;;;;;;16.50;7.65;;;15.90;61.10;;;;;;4997344;28;20518;-73
2023/06/23 02:04:45;;;;;;;8.38;6.10;;;15.80;61.30;;;;;;4998148;28;20121;-74
2023/06/23 02:07:12;;;;;;;8.80;6.57;;;15.80;61.30;;;;;;5014674;28;20041;-74
2023/06/23 02:09:41;;;;;;;10.45;6.15;;;15.70;61.20;;;;;;4998710;28;20121;-73
2023/06/23 02:12:08;;;;;;;10.10;6.78;;;15.60;61.30;;;;;;5014219;28;20029;-74
2023/06/23 02:14:38;;;;;;;10.35;6.97;;;15.60;61.60;;;;;;5016222;28;20288;-74
2023/06/23 02:17:09;;;;;;;10.20;6.95;;;15.50;61.60;;;;;;5015576;28;20427;-74
2023/06/23 02:19:42;;;;;;;8.10;5.80;;;15.50;61.80;;;;;;5013969;28;20319;-74
2023/06/23 02:22:20;;;;;;;7.60;5.57;;;15.50;61.80;;;;;;5012240;28;20304;-74
2023/06/23 02:24:47;;;;;;;8.90;5.80;;;15.50;62.20;;;;;;5013107;28;20026;-74
2023/06/23 02:27:12;;;;;;;7.35;5.30;;;15.40;63.10;;;;;;5013299;28;20034;-74
2023/06/23 02:29:40;;;;;;;9.45;5.57;;;15.40;62.50;;;;;;4996238;28;20133;-74
2023/06/23 02:32:07;;;;;;;9.10;5.43;;;15.30;63.10;;;;;;5013310;28;20038;-75
2023/06/23 02:34:35;;;;;;;7.65;5.20;;;15.30;62.70;;;;;;5013824;28;20018;-74
2023/06/23 02:37:04;;;;;;;9.88;5.75;;;15.30;62.40;;;;;;5011391;28;20018;-75
2023/06/23 02:39:39;;;;;;;7.78;5.88;;;15.30;62.50;;;;;;5012239;28;20089;-74
2023/06/23 02:42:05;;;;;;;9.52;5.68;;;15.30;62.10;;;;;;5012528;28;20323;-73
2023/06/23 02:44:37;;;;;;;8.90;5.90;;;15.30;62.00;;;;;;5015704;28;20034;-76
2023/06/23 02:47:05;;;;;;;8.32;6.07;;;15.30;62.10;;;;;;4997370;28;20033;-75
2023/06/23 02:49:31;;;;;;;8.00;5.93;;;15.30;62.00;;;;;;4997071;28;20068;-75
2023/06/23 02:52:00;;;;;;;8.65;6.45;;;15.20;62.30;;;;;;5012089;28;20042;-74
2023/06/23 02:54:31;;;;;;;9.45;7.05;;;15.20;63.40;;;;;;5015696;28;20022;-74
2023/06/23 02:56:58;;;;;;;9.18;6.65;;;15.10;64.30;;;;;;4996823;28;20415;-74
2023/06/23 02:59:25;;;;;;;9.52;7.28;;;15.10;64.40;;;;;;4997994;28;20117;-72
2023/06/23 03:01:53;;;;;;;10.73;7.30;;;15.10;63.80;;;;;;5013986;28;20022;-73
2023/06/23 03:04:19;;;;;;;10.38;7.53;;;15.10;63.00;;;;;;5014699;28;20113;-73
2023/06/23 03:06:45;;;;;;;9.20;7.03;;;15.20;63.30;;;;;;4994446;28;20534;-74
2023/06/23 03:09:11;;;;;;;10.75;7.68;;;15.10;62.80;;;;;;5014012;28;20022;-75
2023/06/23 03:11:37;;;;;;;12.57;7.90;;;15.20;62.30;;;;;;5012520;28;20117;-74
2023/06/23 03:14:04;;;;;;;12.50;9.45;;;15.20;62.30;;;;;;5015100;28;20133;-75
2023/06/23 03:16:45;;;;;;;13.88;9.98;;;15.20;62.20;;;;;;5015050;28;20074;-75
2023/06/23 03:19:44;;;;;;;19.83;12.75;;;15.10;62.40;;;;;;5013448;28;20022;-75
2023/06/23 03:22:32;;;;;;;14.70;11.25;;;15.10;62.40;;;;;;5007700;28;20036;-75
2023/06/23 03:25:03;;;;;;;15.88;12.40;;;15.10;63.20;;;;;;5014644;28;20144;-75
2023/06/23 03:27:32;;;;;;;15.68;11.65;;;15.00;63.20;;;;;;4997536;28;20018;-75
2023/06/23 03:30:02;;;;;;;18.75;14.30;;;15.00;62.70;;;;;;5015223;28;20026;-76
2023/06/23 03:32:35;;;;;;;17.27;13.77;;;15.00;62.70;;;;;;5014885;28;20048;-75
2023/06/23 03:35:10;;;;;;;16.27;12.25;;;15.00;62.70;;;;;;5015231;28;20414;-75
2023/06/23 03:37:43;;;;;;;16.83;13.18;;;15.00;62.60;;;;;;5007626;28;20319;-75
2023/06/23 03:40:13;;;;;;;18.73;14.18;;;15.00;62.50;;;;;;5011481;28;20104;-76
2023/06/23 03:42:44;;;;;;;16.92;13.63;;;15.00;62.40;;;;;;5010545;28;20120;-76
2023/06/23 03:45:11;;;;;;;17.35;13.55;;;15.00;61.90;;;;;;5015860;28;20427;-76
2023/06/23 03:47:39;;;;;;;20.70;13.25;;;15.00;62.40;;;;;;4997363;28;20048;-75
2023/06/23 03:50:19;;;;;;;18.90;15.38;;;15.00;61.70;;;;;;5018487;28;20482;-75
2023/06/23 03:52:46;;;;;;;18.45;14.00;;;15.00;62.30;;;;;;5017435;28;20088;-75
2023/06/23 03:55:14;;;;;;;18.48;14.80;;;15.00;61.80;;;;;;4999154;28;20515;-76
2023/06/23 03:57:42;;;;;;;19.48;15.02;;;15.00;61.80;;;;;;5001375;28;20034;-75
2023/06/23 04:00:09;;;;;;;17.83;13.60;;;15.00;61.60;;;;;;5006212;28;20315;-76
2023/06/23 04:02:37;;;;;;;21.88;16.52;;;15.00;61.70;;;;;;5017900;28;20446;-76
2023/06/23 04:05:04;;;;;;;18.30;15.35;;;15.00;62.00;;;;;;5019105;28;20030;-75
2023/06/23 04:07:32;;;;;;;21.27;15.85;;;15.00;62.00;;;;;;5013325;28;20037;-76
2023/06/23 04:10:01;;;;;;;18.00;14.77;;;14.90;62.50;;;;;;5023455;28;20112;-76
2023/06/23 04:12:28;;;;;;;19.02;14.15;;;14.90;62.20;;;;;;5029689;28;20105;-76
2023/06/23 04:14:56;;;;;;;19.90;15.32;;;15.00;62.70;;;;;;5018780;28;20033;-76
2023/06/23 04:17:25;;;;;;;16.63;12.52;;;14.90;62.80;;;;;;5009293;28;20315;-76
2023/06/23 04:19:55;;;;;;;20.70;14.13;;;14.90;63.10;;;;;;5032120;28;20103;-75
2023/06/23 04:22:22;;;;;;;14.40;12.38;;;15.00;63.50;;;;;;5016219;28;20482;-76
2023/06/23 04:24:49;;;;;;;15.25;12.23;;;15.00;64.20;;;;;;5017694;28;20029;-76
2023/06/23 04:27:17;;;;;;;16.40;12.50;;;15.00;65.90;;;;;;5018977;28;20049;-76
2023/06/23 04:29:46;;;;;;;17.25;13.45;;;15.00;65.70;;;;;;5017625;28;20312;-76
2023/06/23 04:32:15;;;;;;;16.27;12.23;;;15.00;65.90;;;;;;5016799;28;20026;-76
2023/06/23 04:34:42;;;;;;;14.82;10.88;;;15.10;66.80;;;;;;5017936;28;20060;-76
2023/06/23 04:37:16;;;;;;;16.35;11.77;;;15.10;68.10;;;;;;5017445;28;20083;-76
2023/06/23 04:40:21;;;;;;;16.80;12.77;;;15.10;71.30;;;;;;5000244;28;20022;-75
2023/06/23 04:42:59;;;;;;;13.75;11.32;;;15.20;72.10;;;;;;4981406;28;20050;-75
2023/06/23 04:45:26;;;;;;;14.40;12.23;;;15.20;74.00;;;;;;4992916;28;20092;-76
2023/06/23 04:47:57;;;;;;;17.55;12.88;;;15.30;74.50;;;;;;5017644;28;20113;-76
2023/06/23 04:50:25;;;;;;;17.40;12.95;;;15.40;77.10;;;;;;5018230;28;20400;-76
2023/06/23 04:53:01;;;;;;;23.17;13.82;;;15.40;78.90;;;;;;5014439;28;20125;-76
2023/06/23 04:55:30;;;;;;;19.23;13.85;;;15.40;81.70;;;;;;5019425;28;20022;-75
2023/06/23 04:57:58;;;;;;;17.33;14.18;;;15.40;81.70;;;;;;4999901;28;20030;-75
2023/06/23 05:00:25;;;;;;;17.45;13.82;;;15.50;82.40;;;;;;4999040;28;20076;-75
2023/06/23 05:02:55;;;;;;;17.95;13.45;;;15.60;83.10;;;;;;4997792;28;20053;-74
2023/06/23 05:05:23;;;;;;;17.77;14.57;;;15.60;84.10;;;;;;5016942;28;20080;-76
2023/06/23 05:07:52;;;;;;;19.70;16.88;;;15.70;86.60;;;;;;4998068;28;20369;-76
2023/06/23 05:10:19;;;;;;;23.55;16.25;;;15.70;85.30;;;;;;5017351;28;20397;-76
2023/06/23 05:12:50;;;;;;;23.52;18.90;;;15.70;85.40;;;;;;5016485;28;20030;-76
2023/06/23 05:15:18;;;;;;;21.65;16.13;;;15.70;86.40;;;;;;5015426;28;20025;-77
2023/06/23 05:17:46;;;;;;;23.35;18.35;;;15.70;85.80;;;;;;5017939;28;20026;-76
2023/06/23 05:20:16;;;;;;;21.20;18.10;;;15.70;84.40;;;;;;5017154;28;20030;-74
2023/06/23 05:22:46;;;;;;;24.08;19.52;;;15.70;84.20;;;;;;4997227;28;20113;-76
2023/06/23 05:25:13;;;;;;;24.38;20.05;;;15.70;86.40;;;;;;5015576;28;20542;-76
2023/06/23 05:27:44;;;;;;;24.25;19.73;;;15.80;86.50;;;;;;5017419;28;20313;-76
2023/06/23 05:30:18;;;;;;;28.23;21.17;;;15.70;85.80;;;;;;5016192;28;20033;-76
2023/06/23 05:32:47;;;;;;;27.65;21.23;;;15.70;86.00;;;;;;5016352;28;20439;-76
2023/06/23 05:35:15;;;;;;;25.20;20.83;;;15.80;86.40;;;;;;5016742;28;20038;-76
2023/06/23 05:37:43;;;;;;;27.20;22.17;;;15.80;86.00;;;;;;5015772;28;20036;-76
2023/06/23 05:40:12;;;;;;;24.88;19.83;;;15.90;87.50;;;;;;4999246;28;20026;-77
2023/06/23 05:42:37;;;;;;;25.02;21.00;;;15.90;87.50;;;;;;4998124;28;20041;-76
2023/06/23 05:45:04;;;;;;;26.55;20.55;;;15.90;88.40;;;;;;5016605;28;20470;-77
2023/06/23 05:47:42;;;;;;;28.65;22.15;;;15.90;87.50;;;;;;5015839;28;20204;-77
2023/06/23 05:50:17;;;;;;;25.98;20.67;;;15.90;87.80;;;;;;5016652;28;20084;-76
2023/06/23 05:52:51;;;;;;;26.92;22.23;;;15.90;87.70;;;;;;5012203;28;20065;-75
2023/06/23 05:55:22;;;;;;;30.50;22.85;;;15.90;89.10;;;;;;5017328;28;20599;-75
2023/06/23 05:57:59;;;;;;;29.35;22.98;;;15.90;87.40;;;;;;5014176;28;20029;-76
2023/06/23 06:00:30;;;;;;;27.77;22.20;;;15.90;88.90;;;;;;5000761;28;20668;-75
2023/06/23 06:02:58;;;;;;;33.65;25.20;;;16.00;88.30;;;;;;5001347;28;20032;-76
2023/06/23 06:05:27;;;;;;;29.90;23.98;;;16.10;89.30;;;;;;5017051;28;20022;-76
2023/06/23 06:07:55;;;;;;;33.08;26.58;;;16.20;90.10;;;;;;4982524;28;20022;-77
2023/06/23 06:10:22;;;;;;;31.90;26.08;;;16.20;90.60;;;;;;5014085;28;20050;-76
2023/06/23 06:12:50;;;;;;;36.25;26.85;;;16.30;90.90;;;;;;5014881;28;20026;-76
2023/06/23 06:15:17;;;;;;;37.15;27.83;;;16.30;90.90;;;;;;4999761;28;20419;-76
2023/06/23 06:17:43;;;;;;;38.15;28.70;;;16.30;91.60;;;;;;5016852;28;20029;-76
2023/06/23 06:20:11;;;;;;;36.95;29.10;;;16.20;90.60;;;;;;5014491;28;20029;-76
2023/06/23 06:22:39;;;;;;;37.03;28.25;;;16.30;91.70;;;;;;5013466;28;20034;-76
2023/06/23 06:25:08;;;;;;;38.13;29.20;;;16.30;90.50;;;;;;4996900;28;20041;-76
2023/06/23 06:27:34;;;;;;;39.30;30.70;;;16.30;91.50;;;;;;5011118;28;20026;-75
2023/06/23 06:30:02;;;;;;;38.50;29.27;;;16.30;90.70;;;;;;5006217;28;20034;-76
2023/06/23 06:32:32;;;;;;;36.72;29.42;;;16.30;91.10;;;;;;5014837;28;20025;-75
2023/06/23 06:35:04;;;;;;;40.65;29.50;;;16.40;91.10;;;;;;5012127;28;20069;-76
2023/06/23 06:37:34;;;;;;;37.03;30.58;;;16.50;90.80;;;;;;5014627;28;20033;-76
2023/06/23 06:40:01;;;;;;;40.50;30.83;;;16.50;92.00;;;;;;4998298;28;20025;-76
2023/06/23 06:42:27;;;;;;;41.85;32.65;;;16.50;91.60;;;;;;5015943;28;20423;-76
2023/06/23 06:44:52;;;;;;;45.55;34.20;;;16.60;92.80;;;;;;5016299;28;20053;-75
2023/06/23 06:47:20;;;;;;;43.85;33.38;;;16.50;91.50;;;;;;5018157;28;20034;-75
2023/06/23 06:49:48;;;;;;;40.17;32.35;;;16.40;91.50;;;;;;5022274;28;20076;-76
2023/06/23 06:52:14;;;;;;;41.97;32.38;;;16.50;91.10;;;;;;5016724;28;20037;-75
2023/06/23 06:54:40;;;;;;;39.10;31.35;;;16.60;90.50;;;;;;5032555;28;20021;-75
2023/06/23 06:57:06;;;;;;;41.20;32.35;;;16.60;91.00;;;;;;5023209;28;20112;-75
2023/06/23 06:59:32;;;;;;;46.50;34.33;;;16.70;91.30;;;;;;5015793;28;20473;-75
2023/06/23 07:01:58;;;;;;;41.58;33.33;;;16.80;93.00;;;;;;5014990;28;20030;-75
2023/06/23 07:04:24;;;;;;;39.42;32.83;;;16.80;92.40;;;;;;5013144;28;20446;-76
2023/06/23 07:06:53;;;;;;;38.05;31.33;;;16.80;92.30;;;;;;5011731;28;20072;-75
2023/06/23 07:09:19;;;;;;;40.42;31.98;;;17.00;92.80;;;;;;5014264;28;20140;-76
2023/06/23 07:11:48;;;;;;;38.13;32.20;;;17.20;94.20;;;;;;5016360;28;20426;-75
2023/06/23 07:14:14;;;;;;;36.75;29.40;;;17.40;96.20;;;;;;4999182;28;20026;-75
2023/06/23 07:16:39;;;;;;;35.67;28.67;;;17.70;95.70;;;;;;5014770;28;20018;-75
2023/06/23 07:19:05;;;;;;;37.88;31.00;;;18.00;96.90;;;;;;5016117;28;20026;-76
2023/06/23 07:21:32;;;;;;;38.35;32.38;;;17.80;96.70;;;;;;5014884;28;20084;-76
2023/06/23 07:23:57;;;;;;;38.15;31.35;;;17.60;96.00;;;;;;5015105;28;20476;-76
2023/06/23 07:26:23;;;;;;;34.70;29.88;;;17.30;95.20;;;;;;5020086;28;20045;-75
2023/06/23 07:28:48;;;;;;;38.35;31.00;;;17.20;94.40;;;;;;5002717;28;20076;-75
2023/06/23 07:31:14;;;;;;;36.80;30.67;;;17.20;94.00;;;;;;5020281;28;20026;-75
2023/06/23 07:33:41;;;;;;;39.22;31.55;;;17.30;94.60;;;;;;5019773;28;20026;-75
2023/06/23 07:36:06;;;;;;;40.20;32.08;;;17.40;95.30;;;;;;5018897;28;20041;-75
2023/06/23 07:38:32;;;;;;;40.08;32.70;;;17.30;95.70;;;;;;5020011;28;20407;-75
2023/06/23 07:40:58;;;;;;;43.08;34.35;;;17.20;94.60;;;;;;5017335;28;20088;-75
2023/06/23 07:43:23;;;;;;;38.22;31.95;;;17.20;94.50;;;;;;5020089;28;20033;-75
2023/06/23 07:45:49;;;;;;;37.42;32.08;;;17.30;97.40;;;;;;5019928;28;20493;-75
2023/06/23 07:48:15;;;;;;;34.13;28.52;;;17.30;95.50;;;;;;5019717;28;20088;-76
2023/06/23 07:50:40;;;;;;;35.35;29.73;;;17.30;96.50;;;;;;5019757;28;20036;-75
2023/06/23 07:53:06;;;;;;;35.05;29.52;;;17.40;97.10;;;;;;5018462;28;20034;-75
2023/06/23 07:55:31;;;;;;;35.95;27.95;;;17.50;97.70;;;;;;5016776;28;20022;-75
2023/06/23 07:57:57;;;;;;;33.08;26.88;;;17.70;97.30;;;;;;5018591;28;20030;-75
2023/06/23 08:00:23;;;;;;;38.83;28.65;;;18.00;97.40;;;;;;5002300;28;20076;-76
2023/06/23 08:02:49;;;;;;;32.63;27.75;;;18.20;97.80;;;;;;5019448;28;20026;-75
2023/06/23 08:05:15;;;;;;;36.35;28.83;;;18.10;98.00;;;;;;5019468;28;20029;-75
2023/06/23 08:07:40;;;;;;;33.20;27.33;;;18.10;97.80;;;;;;5000995;28;20030;-75
2023/06/23 08:10:06;;;;;;;31.10;27.13;;;18.00;97.60;;;;;;5019330;28;20022;-75
2023/06/23 08:12:32;;;;;;;31.90;26.45;;;18.10;98.00;;;;;;5016773;28;20026;-75
2023/06/23 08:14:58;;;;;;;29.77;26.15;;;18.30;97.20;;;;;;5018634;28;20037;-77
2023/06/23 08:17:23;;;;;;;30.23;25.65;;;18.50;97.00;;;;;;5018511;28;20034;-76
2023/06/23 08:19:49;;;;;;;28.23;25.02;;;18.70;96.50;;;;;;5019191;28;20041;-75
2023/06/23 08:22:15;;;;;;;29.33;25.92;;;18.60;97.20;;;;;;5017278;28;20030;-75
2023/06/23 08:24:40;;;;;;;32.25;26.15;;;18.50;97.40;;;;;;5018205;28;20073;-76
2023/06/23 08:27:06;;;;;;;29.17;25.58;;;18.30;97.60;;;;;;5019103;28;20037;-75
2023/06/23 08:29:33;;;;;;;31.17;24.23;;;18.50;97.00;;;;;;5018219;28;20022;-75
2023/06/23 08:31:59;;;;;;;27.85;22.58;;;19.20;96.40;;;;;;5017941;28;20088;-74
2023/06/23 08:34:24;;;;;;;26.85;23.23;;;20.00;94.00;;;;;;5014521;28;20026;-75
2023/06/23 08:36:50;;;;;;;27.33;21.75;;;19.80;94.50;;;;;;5017734;28;20065;-75
2023/06/23 08:39:15;;;;;;;26.17;21.17;;;19.80;94.40;;;;;;5018937;28;20026;-75
2023/06/23 08:41:42;;;;;;;26.40;22.27;;;19.70;92.90;;;;;;5018627;28;20331;-76
2023/06/23 08:44:13;;;;;;;27.63;22.77;;;19.10;93.50;;;;;;5016281;28;20026;-75
2023/06/23 08:46:41;;;;;;;27.20;22.27;;;18.60;94.70;;;;;;5007784;28;20117;-75
2023/06/23 08:49:11;;;;;;;28.02;23.70;;;18.40;95.80;;;;;;5016701;28;20323;-75
2023/06/23 08:51:39;;;;;;;27.52;22.95;;;18.20;96.50;;;;;;5016734;28;20060;-75
2023/06/23 08:54:05;;;;;;;27.58;22.35;;;18.10;96.90;;;;;;5016793;28;20109;-75
2023/06/23 08:56:32;;;;;;;27.30;19.77;;;19.10;94.90;;;;;;5018667;28;20160;-75
2023/06/23 08:58:58;;;;;;;23.77;18.80;;;20.30;92.10;;;;;;5018497;28;20026;-75
2023/06/23 09:01:23;;;;;;;23.58;18.05;;;21.20;89.10;;;;;;5018353;28;20021;-75
2023/06/23 09:03:50;;;;;;;23.08;18.45;;;22.10;86.80;;;;;;5017545;28;20073;-75
2023/06/23 09:06:16;;;;;;;23.27;18.85;;;21.10;86.80;;;;;;4996131;28;20022;-75
2023/06/23 09:08:42;;;;;;;25.67;20.30;;;19.80;90.50;;;;;;5011648;28;20030;-76
2023/06/23 09:11:07;;;;;;;24.60;17.70;;;19.50;91.50;;;;;;5000987;28;20132;-75
2023/06/23 09:13:40;;;;;;;27.25;17.55;;;19.70;93.00;;;;;;5018270;28;20036;-75
2023/06/23 09:16:08;;;;;;;21.83;16.63;;;21.20;87.90;;;;;;5018193;28;20026;-75
2023/06/23 09:18:38;;;;;;;19.60;16.67;;;21.60;86.70;;;;;;4999598;28;20025;-75
2023/06/23 09:21:05;;;;;;;18.75;15.25;;;21.60;85.30;;;;;;5017304;28;20026;-76
2023/06/23 09:23:34;;;;;;;18.63;14.63;;;21.20;86.50;;;;;;5018077;28;20033;-76
2023/06/23 09:26:03;;;;;;;16.77;12.38;;;21.10;85.90;;;;;;5017985;28;20062;-75
2023/06/23 09:28:30;;;;;;;15.68;12.38;;;21.30;82.70;;;;;;5018051;28;20045;-75
2023/06/23 09:30:59;;;;;;;15.82;12.43;;;21.50;83.00;;;;;;5015758;28;20038;-76
2023/06/23 09:33:26;;;;;;;17.27;13.43;;;22.00;80.80;;;;;;5017874;28;20022;-75
2023/06/23 09:35:55;;;;;;;13.90;10.88;;;22.10;79.40;;;;;;5017926;28;20076;-76
2023/06/23 09:38:23;;;;;;;18.33;12.77;;;22.40;80.30;;;;;;5016620;28;20097;-75
2023/06/23 09:41:06;;;;;;;17.88;12.75;;;22.30;80.30;;;;;;5000270;28;20049;-75
2023/06/23 09:43:44;;;;;;;20.30;14.85;;;21.60;83.30;;;;;;5000387;28;20040;-76
2023/06/23 09:46:11;;;;;;;17.70;13.68;;;20.90;85.50;;;;;;5016441;28;20083;-75
2023/06/23 09:48:37;;;;;;;21.00;15.02;;;20.60;86.30;;;;;;5017365;28;20113;-75
2023/06/23 09:51:04;;;;;;;18.80;13.95;;;20.20;86.60;;;;;;5016676;28;20095;-73
2023/06/23 09:53:38;;;;;;;17.25;11.57;;;20.00;88.00;;;;;;5017300;28;20338;-73
2023/06/23 09:56:06;;;;;;;15.18;11.25;;;20.80;84.30;;;;;;5017573;28;20022;-73
2023/06/23 09:58:36;;;;;;;16.00;11.45;;;21.30;83.80;;;;;;5000031;28;20034;-73
2023/06/23 10:01:04;;;;;;;15.40;12.88;;;21.00;84.20;;;;;;5016436;28;20030;-73
2023/06/23 10:03:30;;;;;;;15.25;12.63;;;20.60;85.60;;;;;;5017498;28;20034;-75
2023/06/23 10:05:58;;;;;;;18.98;11.85;;;20.30;87.40;;;;;;5016967;28;20025;-77
2023/06/23 10:08:24;;;;;;;13.63;10.02;;;20.70;86.10;;;;;;4998842;28;20035;-75
2023/06/23 10:10:49;;;;;;;12.93;9.07;;;21.80;82.20;;;;;;5017165;28;20068;-75
2023/06/23 10:13:15;;;;;;;11.27;8.32;;;22.10;78.50;;;;;;4999481;28;20026;-75
2023/06/23 10:15:42;;;;;;;12.45;9.13;;;22.30;79.30;;;;;;5016415;28;20022;-75
2023/06/23 10:18:11;;;;;;;13.07;8.63;;;22.10;79.00;;;;;;5013898;28;20049;-75
2023/06/23 10:20:40;;;;;;;14.85;10.50;;;21.60;81.30;;;;;;5015992;28;20297;-75
2023/06/23 10:23:06;;;;;;;15.52;11.52;;;20.90;83.90;;;;;;5014748;28;20034;-75
2023/06/23 10:25:36;;;;;;;15.63;10.93;;;20.60;85.50;;;;;;5016842;28;20318;-75
2023/06/23 10:28:07;;;;;;;14.18;10.10;;;21.50;83.60;;;;;;5016921;28;20026;-75
2023/06/23 10:30:33;;;;;;;15.40;9.35;;;22.50;80.70;;;;;;5016860;28;20080;-75
2023/06/23 10:33:02;;;;;;;10.57;7.82;;;22.60;78.90;;;;;;4998376;28;20026;-74
2023/06/23 10:35:29;;;;;;;12.05;7.40;;;22.90;75.20;;;;;;5016693;28;20072;-76
2023/06/23 10:38:03;;;;;;;10.05;7.88;;;23.60;73.50;;;;;;5014606;28;20041;-75
2023/06/23 10:40:36;;;;;;;9.00;6.68;;;23.50;73.00;;;;;;4999255;28;20026;-75
2023/06/23 10:43:04;;;;;;;11.77;7.50;;;23.40;74.00;;;;;;4999384;28;20342;-75
2023/06/23 10:45:31;;;;;;;15.98;7.90;;;22.70;75.00;;;;;;5016445;28;20025;-74
2023/06/23 10:47:57;;;;;;;14.75;9.13;;;21.90;77.80;;;;;;5015611;28;20034;-76
2023/06/23 10:50:24;;;;;;;10.32;7.38;;;21.30;79.40;;;;;;5016519;28;20029;-75
2023/06/23 10:52:49;;;;;;;11.70;6.63;;;20.90;80.10;;;;;;5013702;28;20030;-76
2023/06/23 10:55:34;;;;;;;8.55;5.72;;;20.90;80.00;;;;;;5016743;28;20041;-75
2023/06/23 10:58:13;;;;;;;9.70;6.45;;;22.20;77.70;;;;;;4999295;28;20464;-75
2023/06/23 11:00:53;;;;;;;9.20;5.60;;;23.00;73.20;;;;;;5016215;28;20407;-75
2023/06/23 11:03:33;;;;;;;10.57;5.30;;;23.20;73.10;;;;;;4997582;28;20018;-75
2023/06/23 11:06:03;;;;;;;7.85;5.45;;;23.00;73.20;;;;;;5015119;28;20064;-75
2023/06/23 11:08:37;;;;;;;8.40;5.43;;;23.90;73.10;;;;;;5015466;28;20026;-76
2023/06/23 11:11:08;;;;;;;8.10;5.53;;;23.90;71.70;;;;;;5016211;28;20453;-75
2023/06/23 11:13:42;;;;;;;9.13;5.63;;;23.20;73.60;;;;;;5016304;28;20374;-75
2023/06/23 11:16:15;;;;;;;10.50;6.00;;;22.00;73.30;;;;;;4998928;28;20037;-75
2023/06/23 11:18:49;;;;;;;10.52;5.75;;;22.40;74.60;;;;;;5016097;28;20407;-74
2023/06/23 11:21:28;;;;;;;7.82;5.13;;;23.10;72.40;;;;;;5013900;28;20365;-74
2023/06/23 11:24:13;;;;;;;8.40;5.32;;;23.40;71.20;;;;;;5011618;28;20026;-75
2023/06/23 11:27:02;;;;;;;8.40;4.78;;;22.70;71.40;;;;;;5016103;28;20048;-75
2023/06/23 11:29:28;;;;;;;9.93;6.18;;;22.70;70.70;;;;;;4990101;28;20042;-75
2023/06/23 11:32:07;;;;;;;12.55;9.43;;;22.80;73.90;;;;;;5016067;28;20037;-75
2023/06/23 11:34:57;;;;;;;10.63;6.80;;;22.70;74.90;;;;;;5016082;28;20069;-75
2023/06/23 11:37:28;;;;;;;11.85;6.63;;;22.60;74.40;;;;;;4997356;28;20018;-76
2023/06/23 11:39:55;;;;;;;11.15;5.60;;;22.10;75.10;;;;;;5014368;28;20041;-75
2023/06/23 11:42:21;;;;;;;9.82;5.57;;;21.80;75.40;;;;;;5015253;28;20117;-75
2023/06/23 11:44:50;;;;;;;10.75;5.97;;;21.90;75.50;;;;;;5015902;28;20125;-75
2023/06/23 11:47:22;;;;;;;7.93;5.30;;;22.50;75.80;;;;;;5015934;28;20296;-74
2023/06/23 11:49:47;;;;;;;8.48;4.85;;;23.00;73.80;;;;;;5015958;28;20492;-75
2023/06/23 11:52:13;;;;;;;6.72;5.00;;;23.40;71.50;;;;;;5014457;28;20033;-75
2023/06/23 11:54:40;;;;;;;8.63;4.97;;;23.80;70.80;;;;;;5013384;28;20050;-76
2023/06/23 11:57:06;;;;;;;7.53;4.38;;;24.20;68.40;;;;;;5015811;28;20426;-76
2023/06/23 11:59:39;;;;;;;9.13;4.32;;;24.60;66.20;;;;;;5015823;28;20025;-75
2023/06/23 12:02:06;;;;;;;6.57;4.68;;;24.60;64.80;;;;;;5015858;28;20026;-75
2023/06/23 12:04:32;;;;;;;6.70;4.78;;;24.40;66.90;;;;;;5015668;28;20022;-75
2023/06/23 12:06:59;;;;;;;9.15;5.78;;;24.10;68.70;;;;;;5013213;28;20030;-75
2023/06/23 12:09:26;;;;;;;9.07;5.55;;;23.80;70.40;;;;;;5014176;28;20354;-75
2023/06/23 12:11:53;;;;;;;8.60;5.65;;;23.90;72.10;;;;;;5019545;28;20097;-75
2023/06/23 12:14:29;;;;;;;8.25;4.70;;;24.30;68.70;;;;;;5019355;28;20419;-75
2023/06/23 12:17:06;;;;;;;7.88;4.38;;;24.50;66.50;;;;;;5017523;28;20026;-75
2023/06/23 12:19:32;;;;;;;6.75;4.65;;;24.80;67.00;;;;;;5001784;28;20030;-75
2023/06/23 12:21:59;;;;;;;8.60;4.32;;;25.30;65.40;;;;;;5018234;28;20060;-75
2023/06/23 12:24:25;;;;;;;6.10;4.03;;;25.40;66.20;;;;;;5018196;28;20064;-75
2023/06/23 12:26:51;;;;;;;6.60;4.60;;;25.60;65.20;;;;;;5019112;28;20026;-74
2023/06/23 12:29:18;;;;;;;8.20;4.65;;;24.90;66.30;;;;;;5019076;28;20022;-74
2023/06/23 12:31:53;;;;;;;7.75;4.20;;;23.90;68.80;;;;;;5017389;28;20419;-75
2023/06/23 12:34:18;;;;;;;7.20;4.75;;;23.40;69.60;;;;;;5018913;28;20411;-76
2023/06/23 12:36:44;;;;;;;7.10;4.40;;;24.40;68.00;;;;;;5017719;28;20080;-75
2023/06/23 12:39:12;;;;;;;6.32;4.43;;;25.10;65.60;;;;;;5017944;28;20473;-76
2023/06/23 12:41:40;;;;;;;7.75;4.10;;;25.50;66.00;;;;;;5018699;28;20046;-75
2023/06/23 12:44:05;;;;;;;8.48;4.25;;;26.10;63.00;;;;;;5018800;28;20026;-75
2023/06/23 12:46:31;;;;;;;7.80;4.13;;;26.00;63.10;;;;;;5018007;28;20037;-74